createdAt,value
2022-08-17T00:00:11.980Z,21.20
2022-08-17T00:01:11.102Z,21.19
2022-08-17T00:02:16.363Z,21.18
2022-08-17T00:03:10.816Z,21.17
2022-08-17T00:04:10.899Z,21.17
2022-08-17T00:05:09.791Z,21.16
2022-08-17T00:06:09.786Z,21.16
2022-08-17T00:07:10.107Z,21.15
2022-08-17T00:08:09.779Z,21.15
2022-08-17T00:09:09.750Z,21.14
2022-08-17T00:10:10.736Z,21.12
2022-08-17T00:11:09.754Z,21.10
2022-08-17T00:12:43.356Z,21.09
2022-08-17T00:13:10.865Z,21.08
2022-08-17T00:14:09.737Z,21.06
2022-08-17T00:15:10.537Z,21.04
2022-08-17T00:16:09.677Z,21.03
2022-08-17T00:17:09.701Z,21.01
2022-08-17T00:19:06.483Z,21.00
2022-08-17T00:19:10.640Z,21.00
2022-08-17T00:20:09.634Z,20.99
2022-08-17T00:21:10.689Z,20.97
2022-08-17T00:22:32.591Z,20.96
2022-08-17T00:23:10.813Z,20.94
2022-08-17T00:24:09.598Z,20.93
2022-08-17T00:25:09.582Z,20.94
2022-08-17T00:26:09.567Z,20.94
2022-08-17T00:27:09.572Z,20.93
2022-08-17T00:28:09.547Z,20.92
2022-08-17T00:29:09.692Z,20.90
2022-08-17T00:30:10.533Z,20.88
2022-08-17T00:31:09.536Z,20.86
2022-08-17T00:33:10.957Z,20.83
2022-08-17T00:33:16.869Z,20.81
2022-08-17T00:34:10.636Z,20.79
2022-08-17T00:35:09.480Z,20.77
2022-08-17T00:36:09.471Z,20.76
2022-08-17T00:37:09.477Z,20.75
2022-08-17T00:38:09.442Z,20.75
2022-08-17T00:39:09.428Z,20.74
2022-08-17T00:40:09.714Z,20.74
2022-08-17T00:41:09.412Z,20.73
2022-08-17T00:42:09.399Z,20.72
2022-08-17T00:43:09.409Z,20.71
2022-08-17T00:44:09.379Z,20.70
2022-08-17T00:45:09.367Z,20.69
2022-08-17T00:46:09.699Z,20.68
2022-08-17T00:47:09.348Z,20.67
2022-08-17T00:48:11.573Z,20.66
2022-08-17T00:49:10.367Z,20.65
2022-08-17T00:50:09.318Z,20.64
2022-08-17T00:51:09.298Z,20.62
2022-08-17T00:52:11.697Z,20.61
2022-08-17T00:53:09.289Z,20.60
2022-08-17T00:54:09.273Z,20.60
2022-08-17T00:55:09.265Z,20.58
2022-08-17T00:56:09.270Z,20.57
2022-08-17T00:57:09.238Z,20.55
2022-08-17T00:58:09.559Z,20.53
2022-08-17T00:59:09.229Z,20.52
2022-08-17T01:00:09.202Z,20.51
2022-08-17T01:01:09.286Z,20.50
2022-08-17T01:02:09.190Z,20.49
2022-08-17T01:03:09.181Z,20.47
2022-08-17T01:04:09.359Z,20.45
2022-08-17T01:05:09.209Z,20.44
2022-08-17T01:06:09.144Z,20.43
2022-08-17T01:07:09.150Z,20.42
2022-08-17T01:08:09.153Z,20.43
2022-08-17T01:09:09.110Z,20.43
2022-08-17T01:10:57.405Z,20.43
2022-08-17T01:11:10.135Z,20.43
2022-08-17T01:12:09.079Z,20.44
2022-08-17T01:13:09.077Z,20.44
2022-08-17T01:14:09.060Z,20.44
2022-08-17T01:15:09.083Z,20.43
2022-08-17T01:16:09.193Z,20.42
2022-08-17T01:17:09.031Z,20.41
2022-08-17T01:18:09.579Z,20.40
2022-08-17T01:19:09.011Z,20.38
2022-08-17T01:20:09.003Z,20.37
2022-08-17T01:21:09.049Z,20.36
2022-08-17T01:22:09.339Z,20.36
2022-08-17T01:23:08.984Z,20.35
2022-08-17T01:24:08.994Z,20.34
2022-08-17T01:25:08.955Z,20.33
2022-08-17T01:26:08.929Z,20.31
2022-08-17T01:27:10.285Z,20.30
2022-08-17T01:28:09.141Z,20.28
2022-08-17T01:29:08.901Z,20.27
2022-08-17T01:30:58.377Z,20.25
2022-08-17T01:31:09.894Z,20.23
2022-08-17T01:32:08.875Z,20.22
2022-08-17T01:33:08.871Z,20.20
2022-08-17T01:34:09.083Z,20.18
2022-08-17T01:35:08.855Z,20.17
2022-08-17T01:36:08.880Z,20.17
2022-08-17T01:37:08.811Z,20.15
2022-08-17T01:38:08.808Z,20.14
2022-08-17T01:39:08.837Z,20.12
2022-08-17T01:40:09.164Z,20.10
2022-08-17T01:41:08.773Z,20.08
2022-08-17T01:42:08.765Z,20.07
2022-08-17T01:43:08.836Z,20.05
2022-08-17T01:44:08.758Z,20.03
2022-08-17T01:45:08.767Z,20.02
2022-08-17T01:46:08.982Z,20.00
2022-08-17T01:47:08.713Z,19.99
2022-08-17T01:48:08.722Z,19.98
2022-08-17T01:49:08.697Z,19.96
2022-08-17T01:50:08.672Z,19.94
2022-08-17T01:51:08.710Z,19.92
2022-08-17T01:52:08.919Z,19.90
2022-08-17T01:53:08.665Z,19.88
2022-08-17T01:54:08.666Z,19.88
2022-08-17T01:55:08.629Z,19.88
2022-08-17T01:56:08.617Z,19.88
2022-08-17T01:57:08.608Z,19.88
2022-08-17T01:58:08.863Z,19.88
2022-08-17T01:59:08.608Z,19.89
2022-08-17T02:00:08.584Z,19.89
2022-08-17T02:01:08.663Z,19.89
2022-08-17T02:02:30.523Z,19.89
2022-08-17T02:03:09.724Z,19.89
2022-08-17T02:04:08.557Z,19.88
2022-08-17T02:05:08.532Z,19.88
2022-08-17T02:06:27.763Z,19.87
2022-08-17T02:07:09.527Z,19.86
2022-08-17T02:08:08.536Z,19.85
2022-08-17T02:09:09.544Z,19.83
2022-08-17T02:10:16.728Z,19.81
2022-08-17T02:11:11.690Z,19.79
2022-08-17T02:12:38.962Z,19.76
2022-08-17T02:13:09.453Z,19.75
2022-08-17T02:14:08.474Z,19.73
2022-08-17T02:15:08.441Z,19.72
2022-08-17T02:16:08.409Z,19.72
2022-08-17T02:17:09.183Z,19.72
2022-08-17T02:18:08.404Z,19.72
2022-08-17T02:19:08.435Z,19.72
2022-08-17T02:20:08.398Z,19.72
2022-08-17T02:21:08.383Z,19.73
2022-08-17T02:22:08.420Z,19.72
2022-08-17T02:23:08.605Z,19.72
2022-08-17T02:24:08.368Z,19.71
2022-08-17T02:25:08.380Z,19.71
2022-08-17T02:26:08.321Z,19.70
2022-08-17T02:27:08.347Z,19.69
2022-08-17T02:28:08.507Z,19.68
2022-08-17T02:29:08.578Z,19.67
2022-08-17T02:31:00.969Z,19.67
2022-08-17T02:31:09.257Z,19.66
2022-08-17T02:32:08.268Z,19.65
2022-08-17T02:33:09.259Z,19.64
2022-08-17T02:34:08.236Z,19.63
2022-08-17T02:35:08.433Z,19.62
2022-08-17T02:36:08.216Z,19.62
2022-08-17T02:37:08.201Z,19.62
2022-08-17T02:38:08.222Z,19.62
2022-08-17T02:39:08.200Z,19.63
2022-08-17T02:40:08.217Z,19.64
2022-08-17T02:41:08.333Z,19.64
2022-08-17T02:42:08.166Z,19.63
2022-08-17T02:43:08.147Z,19.62
2022-08-17T02:44:08.136Z,19.61
2022-08-17T02:45:08.171Z,19.61
2022-08-17T02:46:08.117Z,19.61
2022-08-17T02:47:08.364Z,19.61
2022-08-17T02:48:08.074Z,19.62
2022-08-17T02:49:08.087Z,19.62
2022-08-17T02:50:08.111Z,19.62
2022-08-17T02:51:08.054Z,19.62
2022-08-17T02:52:08.102Z,19.62
2022-08-17T02:53:08.363Z,19.61
2022-08-17T02:54:41.692Z,19.60
2022-08-17T02:55:09.062Z,19.58
2022-08-17T02:56:08.007Z,19.57
2022-08-17T02:57:08.054Z,19.56
2022-08-17T02:58:07.995Z,19.55
2022-08-17T02:59:08.141Z,19.54
2022-08-17T03:00:07.996Z,19.54
2022-08-17T03:01:07.981Z,19.52
2022-08-17T03:02:08.044Z,19.50
2022-08-17T03:03:07.949Z,19.49
2022-08-17T03:04:07.927Z,19.46
2022-08-17T03:05:08.096Z,19.45
2022-08-17T03:06:07.891Z,19.43
2022-08-17T03:07:07.890Z,19.41
2022-08-17T03:08:11.734Z,19.39
2022-08-17T03:09:08.876Z,19.37
2022-08-17T03:10:07.856Z,19.36
2022-08-17T03:11:08.066Z,19.34
2022-08-17T03:12:07.895Z,19.32
2022-08-17T03:13:07.801Z,19.31
2022-08-17T03:14:07.800Z,19.29
2022-08-17T03:15:07.822Z,19.28
2022-08-17T03:16:07.883Z,19.26
2022-08-17T03:17:07.971Z,19.25
2022-08-17T03:18:07.765Z,19.24
2022-08-17T03:19:08.775Z,19.22
2022-08-17T03:20:07.797Z,19.21
2022-08-17T03:21:07.832Z,19.21
2022-08-17T03:22:19.912Z,19.20
2022-08-17T03:23:08.721Z,19.19
2022-08-17T03:24:08.953Z,19.18
2022-08-17T03:25:10.642Z,19.17
2022-08-17T03:26:15.236Z,19.16
2022-08-17T03:27:08.889Z,19.16
2022-08-17T03:28:07.661Z,19.15
2022-08-17T03:29:07.657Z,19.14
2022-08-17T03:30:07.663Z,19.13
2022-08-17T03:31:07.636Z,19.12
2022-08-17T03:32:07.638Z,19.10
2022-08-17T03:33:07.785Z,19.08
2022-08-17T03:34:07.609Z,19.06
2022-08-17T03:35:07.723Z,19.04
2022-08-17T03:36:07.703Z,19.03
2022-08-17T03:37:07.593Z,19.01
2022-08-17T03:38:07.555Z,18.99
2022-08-17T03:39:07.866Z,18.98
2022-08-17T03:40:07.627Z,18.97
2022-08-17T03:41:07.578Z,18.98
2022-08-17T03:42:07.549Z,18.99
2022-08-17T03:43:07.508Z,19.00
2022-08-17T03:44:07.512Z,19.00
2022-08-17T03:45:07.690Z,18.99
2022-08-17T03:46:27.236Z,18.98
2022-08-17T03:47:08.481Z,18.98
2022-08-17T03:48:07.461Z,18.96
2022-08-17T03:49:07.448Z,18.95
2022-08-17T03:50:07.735Z,18.93
2022-08-17T03:51:11.419Z,18.91
2022-08-17T03:52:08.417Z,18.89
2022-08-17T03:53:07.416Z,18.88
2022-08-17T03:54:07.764Z,18.88
2022-08-17T03:55:07.395Z,18.89
2022-08-17T03:56:07.607Z,18.89
2022-08-17T03:57:07.368Z,18.90
2022-08-17T03:58:07.357Z,18.90
2022-08-17T03:59:07.328Z,18.91
2022-08-17T04:00:08.344Z,18.92
2022-08-17T04:01:07.398Z,18.92
2022-08-17T04:02:07.450Z,18.92
2022-08-17T04:03:07.275Z,18.92
2022-08-17T04:04:07.292Z,18.92
2022-08-17T04:05:07.279Z,18.92
2022-08-17T04:06:07.263Z,18.90
2022-08-17T04:07:07.257Z,18.88
2022-08-17T04:08:07.405Z,18.86
2022-08-17T04:09:07.217Z,18.85
2022-08-17T04:10:07.201Z,18.84
2022-08-17T04:11:07.210Z,18.83
2022-08-17T04:12:07.214Z,18.82
2022-08-17T04:13:07.208Z,18.81
2022-08-17T04:14:07.359Z,18.80
2022-08-17T04:15:07.166Z,18.80
2022-08-17T04:16:07.200Z,18.79
2022-08-17T04:17:07.227Z,18.78
2022-08-17T04:18:07.600Z,18.76
2022-08-17T04:19:07.167Z,18.73
2022-08-17T04:20:07.284Z,18.72
2022-08-17T04:21:07.113Z,18.71
2022-08-17T04:22:07.175Z,18.71
2022-08-17T04:23:07.123Z,18.70
2022-08-17T04:24:07.066Z,18.70
2022-08-17T04:25:07.048Z,18.70
2022-08-17T04:26:07.217Z,18.71
2022-08-17T04:27:07.026Z,18.71
2022-08-17T04:28:07.613Z,18.72
2022-08-17T04:29:08.028Z,18.72
2022-08-17T04:30:07.063Z,18.72
2022-08-17T04:31:06.992Z,18.72
2022-08-17T04:32:07.157Z,18.72
2022-08-17T04:33:07.491Z,18.73
2022-08-17T04:34:14.469Z,18.73
2022-08-17T04:35:07.943Z,18.74
2022-08-17T04:36:06.923Z,18.74
2022-08-17T04:37:07.076Z,18.75
2022-08-17T04:38:06.898Z,18.76
2022-08-17T04:39:06.893Z,18.76
2022-08-17T04:40:06.906Z,18.77
2022-08-17T04:41:06.862Z,18.78
2022-08-17T04:42:06.862Z,18.79
2022-08-17T04:43:07.285Z,18.79
2022-08-17T04:44:06.866Z,18.78
2022-08-17T04:45:06.831Z,18.78
2022-08-17T04:46:06.811Z,18.78
2022-08-17T04:47:06.823Z,18.78
2022-08-17T04:48:06.788Z,18.78
2022-08-17T04:49:06.954Z,18.78
2022-08-17T04:50:06.773Z,18.78
2022-08-17T04:51:06.766Z,18.78
2022-08-17T04:52:06.749Z,18.77
2022-08-17T04:53:06.760Z,18.76
2022-08-17T04:54:06.721Z,18.75
2022-08-17T04:55:06.978Z,18.74
2022-08-17T04:56:06.721Z,18.72
2022-08-17T04:57:06.704Z,18.71
2022-08-17T04:58:06.692Z,18.71
2022-08-17T04:59:06.676Z,18.71
2022-08-17T05:00:06.677Z,18.70
2022-08-17T05:01:07.063Z,18.69
2022-08-17T05:02:06.645Z,18.67
2022-08-17T05:03:06.645Z,18.65
2022-08-17T05:04:33.506Z,18.64
2022-08-17T05:05:07.622Z,18.64
2022-08-17T05:06:06.614Z,18.64
2022-08-17T05:07:06.755Z,18.64
2022-08-17T05:08:06.584Z,18.65
2022-08-17T05:09:06.573Z,18.66
2022-08-17T05:10:06.557Z,18.67
2022-08-17T05:11:06.550Z,18.68
2022-08-17T05:12:06.568Z,18.69
2022-08-17T05:13:06.683Z,18.70
2022-08-17T05:14:06.540Z,18.71
2022-08-17T05:15:06.527Z,18.73
2022-08-17T05:16:06.585Z,18.74
2022-08-17T05:17:10.893Z,18.76
2022-08-17T05:18:06.482Z,18.78
2022-08-17T05:19:06.687Z,18.79
2022-08-17T05:20:06.458Z,18.80
2022-08-17T05:21:06.445Z,18.82
2022-08-17T05:22:06.445Z,18.84
2022-08-17T05:23:06.427Z,18.86
2022-08-17T05:24:13.534Z,18.89
2022-08-17T05:25:07.581Z,18.91
2022-08-17T05:26:06.400Z,18.94
2022-08-17T05:27:06.877Z,18.97
2022-08-17T05:28:06.388Z,19.00
2022-08-17T05:29:06.365Z,19.04
2022-08-17T05:30:06.360Z,19.07
2022-08-17T05:31:06.513Z,19.10
2022-08-17T05:32:38.419Z,19.12
2022-08-17T05:33:07.315Z,19.13
2022-08-17T05:34:06.320Z,19.15
2022-08-17T05:35:06.287Z,19.15
2022-08-17T05:36:06.444Z,19.15
2022-08-17T05:37:06.276Z,19.15
2022-08-17T05:38:06.266Z,19.16
2022-08-17T05:39:06.246Z,19.16
2022-08-17T05:40:06.307Z,19.18
2022-08-17T05:41:06.236Z,19.19
2022-08-17T05:42:06.376Z,19.21
2022-08-17T05:43:06.207Z,19.23
2022-08-17T05:44:06.198Z,19.24
2022-08-17T05:45:06.187Z,19.26
2022-08-17T05:46:06.188Z,19.27
2022-08-17T05:47:06.166Z,19.29
2022-08-17T05:48:06.317Z,19.31
2022-08-17T05:49:06.149Z,19.33
2022-08-17T05:50:09.581Z,19.35
2022-08-17T05:51:06.139Z,19.37
2022-08-17T05:52:06.126Z,19.40
2022-08-17T05:53:06.106Z,19.43
2022-08-17T05:54:06.260Z,19.46
2022-08-17T05:55:06.097Z,19.50
2022-08-17T05:56:06.077Z,19.53
2022-08-17T05:57:07.077Z,19.57
2022-08-17T05:58:06.066Z,19.61
2022-08-17T05:59:06.051Z,19.65
2022-08-17T06:00:06.512Z,19.69
2022-08-17T06:01:06.100Z,19.73
2022-08-17T06:02:06.018Z,19.77
2022-08-17T06:03:06.008Z,19.81
2022-08-17T06:04:06.009Z,19.84
2022-08-17T06:05:05.987Z,19.88
2022-08-17T06:06:06.131Z,19.92
2022-08-17T06:07:05.978Z,19.97
2022-08-17T06:08:05.960Z,20.01
2022-08-17T06:09:05.944Z,20.06
2022-08-17T06:10:05.934Z,20.10
2022-08-17T06:11:06.073Z,20.14
2022-08-17T06:12:05.918Z,20.17
2022-08-17T06:13:05.889Z,20.22
2022-08-17T06:14:05.889Z,20.26
2022-08-17T06:15:05.869Z,20.31
2022-08-17T06:16:25.893Z,20.36
2022-08-17T06:17:07.563Z,20.41
2022-08-17T06:18:05.853Z,20.45
2022-08-17T06:19:05.843Z,20.50
2022-08-17T06:20:05.831Z,20.55
2022-08-17T06:21:05.830Z,20.60
2022-08-17T06:22:05.808Z,20.64
2022-08-17T06:23:05.957Z,20.68
2022-08-17T06:24:05.796Z,20.72
2022-08-17T06:25:10.258Z,20.76
2022-08-17T06:26:06.770Z,20.80
2022-08-17T06:27:05.753Z,20.84
2022-08-17T06:28:05.740Z,20.87
2022-08-17T06:29:05.889Z,20.91
2022-08-17T06:30:05.733Z,20.94
2022-08-17T06:31:05.715Z,20.97
2022-08-17T06:32:05.706Z,21.01
2022-08-17T06:33:05.689Z,21.04
2022-08-17T06:34:05.686Z,21.06
2022-08-17T06:35:05.828Z,21.08
2022-08-17T06:36:09.535Z,21.10
2022-08-17T06:37:05.654Z,21.12
2022-08-17T06:38:05.640Z,21.14
2022-08-17T06:39:05.625Z,21.17
2022-08-17T06:40:05.893Z,21.20
2022-08-17T06:41:05.610Z,21.23
2022-08-17T06:42:05.595Z,21.26
2022-08-17T06:43:07.202Z,21.29
2022-08-17T06:44:05.574Z,21.33
2022-08-17T06:45:05.568Z,21.37
2022-08-17T06:46:05.782Z,21.41
2022-08-17T06:47:05.551Z,21.44
2022-08-17T06:48:05.541Z,21.48
2022-08-17T06:49:05.514Z,21.52
2022-08-17T06:50:05.509Z,21.55
2022-08-17T06:51:05.491Z,21.59
2022-08-17T06:52:05.885Z,21.63
2022-08-17T06:53:05.475Z,21.66
2022-08-17T06:54:05.462Z,21.71
2022-08-17T06:55:05.446Z,21.75
2022-08-17T06:56:05.444Z,21.79
2022-08-17T06:57:05.429Z,21.84
2022-08-17T06:58:15.863Z,21.90
2022-08-17T06:59:06.404Z,21.96
2022-08-17T07:00:05.404Z,22.01
2022-08-17T07:01:05.463Z,22.07
2022-08-17T07:02:05.383Z,22.13
2022-08-17T07:03:05.709Z,22.19
2022-08-17T07:04:06.388Z,22.25
2022-08-17T07:05:06.374Z,22.30
2022-08-17T07:06:05.355Z,22.34
2022-08-17T07:07:05.332Z,22.39
2022-08-17T07:08:05.320Z,22.44
2022-08-17T07:09:05.482Z,22.48
2022-08-17T07:10:05.318Z,22.53
2022-08-17T07:11:05.292Z,22.57
2022-08-17T07:12:05.276Z,22.62
2022-08-17T07:13:05.276Z,22.68
2022-08-17T07:14:05.252Z,22.73
2022-08-17T07:15:05.439Z,22.79
2022-08-17T07:16:05.224Z,22.84
2022-08-17T07:17:05.213Z,22.89
2022-08-17T07:18:05.217Z,22.95
2022-08-17T07:19:05.198Z,23.00
2022-08-17T07:20:05.198Z,23.06
2022-08-17T07:21:05.341Z,23.11
2022-08-17T07:22:05.166Z,23.17
2022-08-17T07:23:05.152Z,23.22
2022-08-17T07:24:05.145Z,23.27
2022-08-17T07:25:05.155Z,23.34
2022-08-17T07:26:05.134Z,23.40
2022-08-17T07:27:05.263Z,23.47
2022-08-17T07:28:06.918Z,23.54
2022-08-17T07:29:05.096Z,23.60
2022-08-17T07:30:10.051Z,23.67
2022-08-17T07:31:06.067Z,23.73
2022-08-17T07:32:05.058Z,23.79
2022-08-17T07:33:05.223Z,23.84
2022-08-17T07:34:05.040Z,23.92
2022-08-17T07:35:05.023Z,24.00
2022-08-17T07:36:05.016Z,24.10
2022-08-17T07:37:05.002Z,24.19
2022-08-17T07:38:04.995Z,24.26
2022-08-17T07:39:06.137Z,24.32
2022-08-17T07:40:15.946Z,24.37
2022-08-17T07:41:05.961Z,24.43
2022-08-17T07:42:04.950Z,24.48
2022-08-17T07:43:05.125Z,24.54
2022-08-17T07:44:05.086Z,24.60
2022-08-17T07:45:04.915Z,24.65
2022-08-17T07:46:04.915Z,24.70
2022-08-17T07:47:04.896Z,24.75
2022-08-17T07:48:04.886Z,24.82
2022-08-17T07:49:05.055Z,24.88
2022-08-17T07:50:04.856Z,24.94
2022-08-17T07:51:04.848Z,25.00
2022-08-17T07:52:47.725Z,25.07
2022-08-17T07:53:05.837Z,25.14
2022-08-17T07:54:14.648Z,25.21
2022-08-17T07:55:06.037Z,25.29
2022-08-17T07:56:04.826Z,25.37
2022-08-17T07:57:04.780Z,25.43
2022-08-17T07:58:04.776Z,25.49
2022-08-17T07:59:04.777Z,25.54
2022-08-17T08:00:04.752Z,25.58
2022-08-17T08:01:04.908Z,25.63
2022-08-17T08:02:05.375Z,25.68
2022-08-17T08:03:04.731Z,25.74
2022-08-17T08:04:05.738Z,25.82
2022-08-17T08:05:06.533Z,25.92
2022-08-17T08:06:04.846Z,26.02
2022-08-17T08:07:04.678Z,26.12
2022-08-17T08:08:04.680Z,26.20
2022-08-17T08:09:04.648Z,26.27
2022-08-17T08:10:04.648Z,26.33
2022-08-17T08:11:04.887Z,26.37
2022-08-17T08:12:04.627Z,26.42
2022-08-17T08:13:04.619Z,26.48
2022-08-17T08:14:04.615Z,26.54
2022-08-17T08:15:04.588Z,26.58
2022-08-17T08:16:04.587Z,26.62
2022-08-17T08:17:04.770Z,26.63
2022-08-17T08:18:04.558Z,26.62
2022-08-17T08:19:04.558Z,26.62
2022-08-17T08:20:35.017Z,26.61
2022-08-17T08:21:05.543Z,26.61
2022-08-17T08:22:04.531Z,26.62
2022-08-17T08:23:04.670Z,26.64
2022-08-17T08:24:04.500Z,26.66
2022-08-17T08:25:04.486Z,26.67
2022-08-17T08:26:04.494Z,26.68
2022-08-17T08:27:04.470Z,26.70
2022-08-17T08:28:04.621Z,26.73
2022-08-17T08:29:04.456Z,26.78
2022-08-17T08:30:04.429Z,26.84
2022-08-17T08:31:04.431Z,26.92
2022-08-17T08:32:04.419Z,27.02
2022-08-17T08:33:04.423Z,27.13
2022-08-17T08:34:04.551Z,27.22
2022-08-17T08:35:04.401Z,27.31
2022-08-17T08:36:04.389Z,27.39
2022-08-17T08:37:16.307Z,27.46
2022-08-17T08:38:05.359Z,27.54
2022-08-17T08:39:04.342Z,27.61
2022-08-17T08:40:04.671Z,27.67
2022-08-17T08:41:04.341Z,27.72
2022-08-17T08:42:04.310Z,27.76
2022-08-17T08:43:04.307Z,27.80
2022-08-17T08:44:04.282Z,27.82
2022-08-17T08:45:05.426Z,27.84
2022-08-17T08:46:04.428Z,27.87
2022-08-17T08:47:04.251Z,27.92
2022-08-17T08:48:05.622Z,28.01
2022-08-17T08:49:10.286Z,28.11
2022-08-17T08:50:05.806Z,28.18
2022-08-17T08:51:04.221Z,28.22
2022-08-17T08:52:04.359Z,28.27
2022-08-17T08:53:04.183Z,28.32
2022-08-17T08:54:04.180Z,28.37
2022-08-17T08:55:04.183Z,28.42
2022-08-17T08:56:04.157Z,28.45
2022-08-17T08:58:05.133Z,28.48
2022-08-17T08:59:04.132Z,28.49
2022-08-17T09:00:04.118Z,28.50
2022-08-17T09:01:04.163Z,28.50
2022-08-17T09:02:04.097Z,28.51
2022-08-17T09:03:04.420Z,28.54
2022-08-17T09:04:21.498Z,28.57
2022-08-17T09:05:20.082Z,28.61
2022-08-17T09:06:05.065Z,28.65
2022-08-17T09:07:05.044Z,28.69
2022-08-17T09:08:04.035Z,28.72
2022-08-17T09:09:04.173Z,28.75
2022-08-17T09:10:04.020Z,28.78
2022-08-17T09:11:04.008Z,28.80
2022-08-17T09:12:04.303Z,28.83
2022-08-17T09:13:09.983Z,28.87
2022-08-17T09:14:05.147Z,28.91
2022-08-17T09:15:08.236Z,28.95
2022-08-17T09:16:04.950Z,28.98
2022-08-17T09:17:03.935Z,29.00
2022-08-17T09:18:58.968Z,29.01
2022-08-17T09:19:05.425Z,29.01
2022-08-17T09:20:04.330Z,29.01
2022-08-17T09:21:03.897Z,29.01
2022-08-17T09:22:03.877Z,28.99
2022-08-17T09:23:03.959Z,28.97
2022-08-17T09:24:03.875Z,28.98
2022-08-17T09:25:03.858Z,29.01
2022-08-17T09:26:04.007Z,29.08
2022-08-17T09:27:03.835Z,29.14
2022-08-17T09:28:03.851Z,29.16
2022-08-17T09:29:03.819Z,29.15
2022-08-17T09:30:03.798Z,29.13
2022-08-17T09:31:03.968Z,29.12
2022-08-17T09:32:03.831Z,29.12
2022-08-17T09:33:03.768Z,29.11
2022-08-17T09:34:03.759Z,29.10
2022-08-17T09:35:03.771Z,29.10
2022-08-17T09:36:03.737Z,29.10
2022-08-17T09:37:03.896Z,29.12
2022-08-17T09:38:04.017Z,29.15
2022-08-17T09:39:03.702Z,29.17
2022-08-17T09:40:03.734Z,29.19
2022-08-17T09:41:03.690Z,29.21
2022-08-17T09:42:03.858Z,29.21
2022-08-17T09:43:03.673Z,29.22
2022-08-17T09:44:03.649Z,29.26
2022-08-17T09:45:03.640Z,29.30
2022-08-17T09:46:03.630Z,29.34
2022-08-17T09:47:03.630Z,29.37
2022-08-17T09:48:03.775Z,29.38
2022-08-17T09:49:03.709Z,29.38
2022-08-17T09:50:03.597Z,29.39
2022-08-17T09:51:06.588Z,29.41
2022-08-17T09:52:03.561Z,29.42
2022-08-17T09:53:03.720Z,29.43
2022-08-17T09:54:21.375Z,29.44
2022-08-17T09:55:04.532Z,29.44
2022-08-17T09:56:03.544Z,29.44
2022-08-17T09:57:27.931Z,29.44
2022-08-17T09:58:04.651Z,29.44
2022-08-17T09:59:03.530Z,29.44
2022-08-17T10:00:03.552Z,29.44
2022-08-17T10:01:03.553Z,29.43
2022-08-17T10:02:03.501Z,29.43
2022-08-17T10:03:03.452Z,29.43
2022-08-17T10:04:03.601Z,29.46
2022-08-17T10:05:03.431Z,29.49
2022-08-17T10:06:06.542Z,29.51
2022-08-17T10:07:03.406Z,29.54
2022-08-17T10:08:03.422Z,29.56
2022-08-17T10:09:03.542Z,29.56
2022-08-17T10:10:03.374Z,29.57
2022-08-17T10:11:03.396Z,29.56
2022-08-17T10:12:03.362Z,29.54
2022-08-17T10:13:03.342Z,29.52
2022-08-17T10:14:03.333Z,29.51
2022-08-17T10:15:08.089Z,29.52
2022-08-17T10:16:03.323Z,29.56
2022-08-17T10:17:03.306Z,29.61
2022-08-17T10:18:03.301Z,29.66
2022-08-17T10:19:03.278Z,29.71
2022-08-17T10:20:03.272Z,29.75
2022-08-17T10:21:03.524Z,29.77
2022-08-17T10:22:32.402Z,29.77
2022-08-17T10:23:04.237Z,29.76
2022-08-17T10:24:03.238Z,29.75
2022-08-17T10:25:22.349Z,29.75
2022-08-17T10:26:04.534Z,29.75
2022-08-17T10:27:03.200Z,29.75
2022-08-17T10:28:03.183Z,29.73
2022-08-17T10:29:03.181Z,29.72
2022-08-17T10:30:03.181Z,29.72
2022-08-17T10:31:34.416Z,29.75
2022-08-17T10:32:04.362Z,29.81
2022-08-17T10:33:03.136Z,29.86
2022-08-17T10:34:03.142Z,29.87
2022-08-17T10:35:03.118Z,29.87
2022-08-17T10:36:06.361Z,29.85
2022-08-17T10:37:04.098Z,29.81
2022-08-17T10:38:03.242Z,29.77
2022-08-17T10:39:03.065Z,29.74
2022-08-17T10:40:03.124Z,29.74
2022-08-17T10:41:03.061Z,29.76
2022-08-17T10:42:03.030Z,29.80
2022-08-17T10:43:03.195Z,29.83
2022-08-17T10:44:40.692Z,29.86
2022-08-17T10:45:04.013Z,29.89
2022-08-17T10:46:09.432Z,29.92
2022-08-17T10:47:04.000Z,29.94
2022-08-17T10:48:06.222Z,29.94
2022-08-17T10:49:02.965Z,29.93
2022-08-17T10:50:02.951Z,29.92
2022-08-17T10:51:02.959Z,29.89
2022-08-17T10:52:02.934Z,29.85
2022-08-17T10:53:02.926Z,29.80
2022-08-17T10:54:03.069Z,29.78
2022-08-17T10:55:02.926Z,29.78
2022-08-17T10:56:02.896Z,29.80
2022-08-17T10:57:02.907Z,29.81
2022-08-17T10:58:02.913Z,29.82
2022-08-17T10:59:02.874Z,29.82
2022-08-17T11:00:03.011Z,29.83
2022-08-17T11:01:02.903Z,29.85
2022-08-17T11:02:02.839Z,29.86
2022-08-17T11:03:02.833Z,29.86
2022-08-17T11:04:02.816Z,29.84
2022-08-17T11:05:02.961Z,29.82
2022-08-17T11:06:02.790Z,29.80
2022-08-17T11:07:02.788Z,29.78
2022-08-17T11:08:02.774Z,29.77
2022-08-17T11:09:02.767Z,29.78
2022-08-17T11:10:02.929Z,29.80
2022-08-17T11:11:02.751Z,29.80
2022-08-17T11:12:02.729Z,29.80
2022-08-17T11:13:02.718Z,29.81
2022-08-17T11:14:02.717Z,29.81
2022-08-17T11:15:02.721Z,29.80
2022-08-17T11:16:08.113Z,29.79
2022-08-17T11:17:03.700Z,29.77
2022-08-17T11:18:02.690Z,29.78
2022-08-17T11:19:02.661Z,29.80
2022-08-17T11:20:03.001Z,29.85
2022-08-17T11:21:02.639Z,29.89
2022-08-17T11:22:02.623Z,29.92
2022-08-17T11:23:02.630Z,29.95
2022-08-17T11:24:02.600Z,29.99
2022-08-17T11:25:02.595Z,30.02
2022-08-17T11:26:02.780Z,30.05
2022-08-17T11:27:02.577Z,30.07
2022-08-17T11:28:02.569Z,30.08
2022-08-17T11:29:02.561Z,30.07
2022-08-17T11:30:03.098Z,30.06
2022-08-17T11:31:02.531Z,30.03
2022-08-17T11:32:02.710Z,30.01
2022-08-17T11:33:02.521Z,29.99
2022-08-17T11:34:02.510Z,29.98
2022-08-17T11:35:02.510Z,29.97
2022-08-17T11:36:02.506Z,29.96
2022-08-17T11:37:02.472Z,29.94
2022-08-17T11:38:02.610Z,29.91
2022-08-17T11:39:02.457Z,29.90
2022-08-17T11:40:02.491Z,29.92
2022-08-17T11:41:02.463Z,29.95
2022-08-17T11:42:02.652Z,29.98
2022-08-17T11:43:02.407Z,30.01
2022-08-17T11:44:02.815Z,30.05
2022-08-17T11:45:02.388Z,30.08
2022-08-17T11:46:02.373Z,30.10
2022-08-17T11:47:02.364Z,30.11
2022-08-17T11:48:26.479Z,30.12
2022-08-17T11:49:03.346Z,30.14
2022-08-17T11:50:02.383Z,30.16
2022-08-17T11:51:02.324Z,30.17
2022-08-17T11:52:02.319Z,30.18
2022-08-17T11:53:02.310Z,30.18
2022-08-17T11:54:31.144Z,30.15
2022-08-17T11:55:18.007Z,30.12
2022-08-17T11:56:03.274Z,30.07
2022-08-17T11:57:02.280Z,30.01
2022-08-17T11:58:02.261Z,29.98
2022-08-17T11:59:02.245Z,29.98
2022-08-17T12:00:02.645Z,30.01
2022-08-17T12:01:02.243Z,30.05
2022-08-17T12:02:02.206Z,30.08
2022-08-17T12:03:02.195Z,30.07
2022-08-17T12:04:02.220Z,30.05
2022-08-17T12:05:02.181Z,30.02
2022-08-17T12:06:02.315Z,29.99
2022-08-17T12:07:02.146Z,29.97
2022-08-17T12:08:02.148Z,29.96
2022-08-17T12:09:02.128Z,29.95
2022-08-17T12:10:02.115Z,29.95
2022-08-17T12:11:02.116Z,29.98
2022-08-17T12:12:13.223Z,30.01
2022-08-17T12:13:03.090Z,30.06
2022-08-17T12:14:02.086Z,30.10
2022-08-17T12:15:10.966Z,30.12
2022-08-17T12:16:03.051Z,30.13
2022-08-17T12:17:02.050Z,30.12
2022-08-17T12:18:02.428Z,30.10
2022-08-17T12:19:02.026Z,30.08
2022-08-17T12:20:02.041Z,30.05
2022-08-17T12:21:02.018Z,30.03
2022-08-17T12:22:02.002Z,29.99
2022-08-17T12:23:01.984Z,29.96
2022-08-17T12:24:02.189Z,29.93
2022-08-17T12:25:01.960Z,29.92
2022-08-17T12:26:01.965Z,29.94
2022-08-17T12:27:01.949Z,29.96
2022-08-17T12:28:06.086Z,29.98
2022-08-17T12:29:03.118Z,29.98
2022-08-17T12:30:01.924Z,29.97
2022-08-17T12:31:01.908Z,29.95
2022-08-17T12:32:01.889Z,29.92
2022-08-17T12:33:01.890Z,29.89
2022-08-17T12:34:01.870Z,29.86
2022-08-17T12:35:02.169Z,29.84
2022-08-17T12:36:01.850Z,29.84
2022-08-17T12:37:01.848Z,29.85
2022-08-17T12:38:01.859Z,29.85
2022-08-17T12:39:14.369Z,29.86
2022-08-17T12:40:03.068Z,29.88
2022-08-17T12:41:01.803Z,29.92
2022-08-17T12:42:02.809Z,29.98
2022-08-17T12:43:01.774Z,30.06
2022-08-17T12:44:01.855Z,30.12
2022-08-17T12:45:01.751Z,30.18
2022-08-17T12:46:13.275Z,30.22
2022-08-17T12:47:02.747Z,30.25
2022-08-17T12:48:01.719Z,30.27
2022-08-17T12:49:01.728Z,30.27
2022-08-17T12:50:01.702Z,30.26
2022-08-17T12:51:01.706Z,30.24
2022-08-17T12:52:02.039Z,30.22
2022-08-17T12:53:02.649Z,30.20